Huvudsida
METAR-TAF:

METAR-TAF

Flygplatser :

Amman Civil Airport

Amman, Jordanien

latitud: 31-59N, longitud: 035-59E, höjd: 767 m

Aktuellt väderrapport

Denna rapport gjordes för 11 minuter sedan, klockan 08:00 UTC
Vind 5 kt från ost
Temperatur 31°C
Fuktighet 24%
Tryck 1014 hPa
Sikt: 4000 m
torrdis

METAR: OJAM 270800Z 09005KT 4000 HZ NSC 31/08 Q1014 NOSIG

Tid: 11:11 (08:11 UTC)

Väderprognos

Denna rapport gjordes för 2 timmar och 51 minuter sedan, klockan 05:20 UTC
Prognos gäller från 27 kl. 06 UTC till 28 kl. 12 UTC
Vind kt från nord
Sikt: 3000 m
torrdis
Blir
från 27 kl. 12 UTC till 27 kl. 14 UTC
Vind 10 kt från väst
Sikt: 5000 m
torrdis

TAF: OJAM 270520Z 2706/2812 00000KT 3000 HZ NSC BECMG 2712/2714 28010KT 5000 HZ

Aktuella väderrapporter och prognoser från 4000 flygplatser (METAR- och TAF-rapporter).

De tillgängliga stationerna syns som gula och röda prickar på kartan.

För musen över prickarna för att se namnen på stationerna.

Klicka sedan för att få väderrapporter och prognoser.

För att ändra kartan: Klicka på de gröna knapparna med ett svart kors på för att zooma in; den gröna knappen med ett streck på för att zooma ut; eller på de gröna pilarna för angränsande kartor.


METAR-TAF: